Time;durP1;ratioP1;P1;durP2;ratioP2;P2;SDS_P1;SDS_P2;PMS_P1;PMS_P2;Temp;Humidity;BMP_temperature;BMP_pressure;BME280_temperature;BME280_humidity;BME280_pressure;Samples;Min_cycle;Max_cycle;Signal;HPM_P1;HPM_P2
2021/04/15 00:00:19;;;;;;;12.40;8.37;;;;;;;;;;5056018;28;20851;-67
2021/04/15 00:02:46;;;;;;;16.70;8.37;;;;;;;;;;5054973;28;20443;-67
2021/04/15 00:05:13;;;;;;;9.40;7.20;;;;;;;;;;5056327;28;20463;-67
2021/04/15 00:07:39;;;;;;;8.93;7.43;;;;;;;;;;5057194;28;20472;-67
2021/04/15 00:10:07;;;;;;;10.30;7.80;;;;;;;;;;5057643;28;20443;-67
2021/04/15 00:12:33;;;;;;;9.93;7.40;;;;;;;;;;5059850;28;20407;-67
2021/04/15 00:14:59;;;;;;;12.10;8.40;;;;;;;;;;5058421;28;20447;-67
2021/04/15 00:17:25;;;;;;;10.93;7.40;;;;;;;;;;5059659;28;20412;-68
2021/04/15 00:19:51;;;;;;;13.47;8.20;;;;;;;;;;5048166;28;20432;-67
2021/04/15 00:22:17;;;;;;;10.00;7.00;;;;;;;;;;5036596;28;20412;-67
2021/04/15 00:24:43;;;;;;;10.87;7.80;;;;;;;;;;5042794;28;20822;-67
2021/04/15 00:27:09;;;;;;;13.40;7.77;;;;;;;;;;5057066;28;20466;-67
2021/04/15 00:29:35;;;;;;;12.40;8.70;;;;;;;;;;5035793;28;20519;-67
2021/04/15 00:32:01;;;;;;;10.47;8.07;;;;;;;;;;5056364;28;20446;-67
2021/04/15 00:34:27;;;;;;;11.00;8.60;;;;;;;;;;5055142;28;20454;-68
2021/04/15 00:36:53;;;;;;;14.67;9.03;;;;;;;;;;5055546;28;20491;-67
2021/04/15 00:39:19;;;;;;;14.37;8.50;;;;;;;;;;5052372;28;20445;-67
2021/04/15 00:41:45;;;;;;;14.00;9.40;;;;;;;;;;5035773;28;20917;-67
2021/04/15 00:44:11;;;;;;;11.10;8.93;;;;;;;;;;5036952;28;20443;-67
2021/04/15 00:46:37;;;;;;;11.47;8.17;;;;;;;;;;5055853;28;20458;-67
2021/04/15 00:49:04;;;;;;;13.37;8.60;;;;;;;;;;5054693;28;20403;-67
2021/04/15 00:51:31;;;;;;;11.83;9.07;;;;;;;;;;5035381;28;20392;-67
2021/04/15 00:54:03;;;;;;;11.33;8.87;;;;;;;;;;5036105;28;20538;-67
2021/04/15 00:56:30;;;;;;;15.07;8.70;;;;;;;;;;5056056;28;20814;-67
2021/04/15 00:58:56;;;;;;;11.83;8.03;;;;;;;;;;5056320;28;20405;-67
2021/04/15 01:01:22;;;;;;;12.20;9.00;;;;;;;;;;5054762;28;20547;-67
2021/04/15 01:03:49;;;;;;;11.50;9.30;;;;;;;;;;5055928;28;20426;-67
2021/04/15 01:06:15;;;;;;;10.00;8.03;;;;;;;;;;5054304;28;20458;-67
2021/04/15 01:08:41;;;;;;;11.40;8.33;;;;;;;;;;5054197;28;20426;-67
2021/04/15 01:11:10;;;;;;;13.77;8.87;;;;;;;;;;5054857;28;20439;-67
2021/04/15 01:13:46;;;;;;;11.50;8.40;;;;;;;;;;5055877;28;20395;-67
2021/04/15 01:16:32;;;;;;;12.10;9.10;;;;;;;;;;5053036;28;20443;-67
2021/04/15 01:19:02;;;;;;;10.50;8.27;;;;;;;;;;5042158;28;20451;-67
2021/04/15 01:21:44;;;;;;;13.47;8.60;;;;;;;;;;5059741;28;20471;-67
2021/04/15 01:24:29;;;;;;;13.70;8.63;;;;;;;;;;5057002;28;20922;-67
2021/04/15 01:27:01;;;;;;;15.70;7.87;;;;;;;;;;5037580;28;20499;-67
2021/04/15 01:29:53;;;;;;;14.43;8.97;;;;;;;;;;5018689;28;20987;-67
2021/04/15 01:32:28;;;;;;;14.20;8.37;;;;;;;;;;5033507;28;20425;-67
2021/04/15 01:35:09;;;;;;;15.50;9.70;;;;;;;;;;5036673;28;20517;-67
2021/04/15 01:37:40;;;;;;;15.70;8.77;;;;;;;;;;5055821;28;20412;-67
2021/04/15 01:40:26;;;;;;;14.47;9.07;;;;;;;;;;5053122;28;20875;-67
2021/04/15 01:42:56;;;;;;;16.00;9.37;;;;;;;;;;5036236;28;20401;-67
2021/04/15 01:45:22;;;;;;;13.57;9.00;;;;;;;;;;5039330;28;20528;-67
2021/04/15 01:47:48;;;;;;;14.13;10.00;;;;;;;;;;5044731;28;20480;-67
2021/04/15 01:50:17;;;;;;;13.03;9.30;;;;;;;;;;5037998;28;20425;-67
2021/04/15 01:52:45;;;;;;;12.63;9.90;;;;;;;;;;5055637;28;20400;-67
2021/04/15 01:55:14;;;;;;;15.43;9.50;;;;;;;;;;5054647;28;20588;-67
2021/04/15 01:57:46;;;;;;;12.13;8.60;;;;;;;;;;5055730;28;20409;-67
2021/04/15 02:00:15;;;;;;;13.63;9.40;;;;;;;;;;5053558;28;20434;-67
2021/04/15 02:02:43;;;;;;;16.27;9.90;;;;;;;;;;5039118;28;20503;-67
2021/04/15 02:05:45;;;;;;;17.50;10.90;;;;;;;;;;5039500;28;20456;-67
2021/04/15 02:08:17;;;;;;;17.63;10.07;;;;;;;;;;4959498;29;20426;-67
2021/04/15 02:10:45;;;;;;;17.30;10.37;;;;;;;;;;5031714;28;20428;-67
2021/04/15 02:13:11;;;;;;;16.90;10.90;;;;;;;;;;5059160;28;20403;-67
2021/04/15 02:15:45;;;;;;;13.90;10.63;;;;;;;;;;5058547;28;20793;-67
2021/04/15 02:18:14;;;;;;;16.10;10.37;;;;;;;;;;5041285;28;20415;-67
2021/04/15 02:20:40;;;;;;;18.50;12.27;;;;;;;;;;5057133;28;20429;-67
2021/04/15 02:23:18;;;;;;;14.80;10.03;;;;;;;;;;5059434;28;20405;-67
2021/04/15 02:25:49;;;;;;;13.73;9.70;;;;;;;;;;5057983;28;20465;-67
2021/04/15 02:28:30;;;;;;;15.20;10.40;;;;;;;;;;5059112;28;20404;-67
2021/04/15 02:31:04;;;;;;;15.87;10.17;;;;;;;;;;5051562;28;20464;-67
2021/04/15 02:33:48;;;;;;;16.13;11.20;;;;;;;;;;5039178;28;20446;-67
2021/04/15 02:36:15;;;;;;;21.30;10.40;;;;;;;;;;5046140;28;20476;-67
2021/04/15 02:38:46;;;;;;;16.53;11.00;;;;;;;;;;5039391;28;20412;-67
2021/04/15 02:41:15;;;;;;;15.47;10.87;;;;;;;;;;5047599;28;20830;-67
2021/04/15 02:43:42;;;;;;;16.33;10.60;;;;;;;;;;5040001;28;20467;-67
2021/04/15 02:46:13;;;;;;;16.00;10.30;;;;;;;;;;5056717;28;20465;-67
2021/04/15 02:48:41;;;;;;;12.47;9.30;;;;;;;;;;5058050;28;20440;-67
2021/04/15 02:51:09;;;;;;;13.60;8.13;;;;;;;;;;5039340;28;20428;-67
2021/04/15 02:53:38;;;;;;;10.57;7.50;;;;;;;;;;5051057;28;20518;-67
2021/04/15 02:56:08;;;;;;;14.07;7.97;;;;;;;;;;5044420;28;20446;-67
2021/04/15 02:58:46;;;;;;;14.37;6.97;;;;;;;;;;5058982;28;20417;-67
2021/04/15 03:01:13;;;;;;;8.73;7.00;;;;;;;;;;5051684;28;20436;-67
2021/04/15 03:03:42;;;;;;;16.47;8.10;;;;;;;;;;5028770;28;20817;-67
2021/04/15 03:06:16;;;;;;;14.50;7.00;;;;;;;;;;5044749;28;20538;-67
2021/04/15 03:08:44;;;;;;;10.27;7.83;;;;;;;;;;5040460;28;20462;-68
2021/04/15 03:11:16;;;;;;;14.60;8.50;;;;;;;;;;5057993;28;20423;-67
2021/04/15 03:13:49;;;;;;;11.63;7.90;;;;;;;;;;5058480;28;20480;-67
2021/04/15 03:16:16;;;;;;;15.07;8.43;;;;;;;;;;5058547;28;20525;-67
2021/04/15 03:18:44;;;;;;;11.73;8.73;;;;;;;;;;5059042;28;20414;-67
2021/04/15 03:21:18;;;;;;;9.90;7.20;;;;;;;;;;5058105;28;20441;-67
2021/04/15 03:23:47;;;;;;;12.03;7.80;;;;;;;;;;5040479;28;20423;-67
2021/04/15 03:26:22;;;;;;;11.90;7.87;;;;;;;;;;5057239;28;20635;-67
2021/04/15 03:28:57;;;;;;;11.50;6.87;;;;;;;;;;5058529;28;20745;-67
2021/04/15 03:31:26;;;;;;;11.97;7.60;;;;;;;;;;5056983;28;20445;-67
2021/04/15 03:33:52;;;;;;;7.73;5.93;;;;;;;;;;5040292;28;20434;-67
2021/04/15 03:36:33;;;;;;;10.03;6.10;;;;;;;;;;5039090;28;20471;-67
2021/04/15 03:39:24;;;;;;;8.30;6.37;;;;;;;;;;5057524;28;20893;-67
2021/04/15 03:41:51;;;;;;;9.27;6.47;;;;;;;;;;5033268;28;20444;-67
2021/04/15 03:44:26;;;;;;;7.13;4.90;;;;;;;;;;5039818;28;20439;-67
2021/04/15 03:46:55;;;;;;;7.50;4.97;;;;;;;;;;5039620;28;20565;-67
2021/04/15 03:49:26;;;;;;;9.80;6.47;;;;;;;;;;5038195;28;20407;-68
2021/04/15 03:51:53;;;;;;;10.00;5.83;;;;;;;;;;5049209;28;20440;-67
2021/04/15 03:54:26;;;;;;;11.40;4.93;;;;;;;;;;5058698;28;20443;-67
2021/04/15 03:56:55;;;;;;;7.77;5.60;;;;;;;;;;5049337;28;20440;-67
2021/04/15 03:59:23;;;;;;;11.03;6.20;;;;;;;;;;5039752;28;20428;-67
2021/04/15 04:01:53;;;;;;;5.97;4.80;;;;;;;;;;5057028;28;20963;-67
2021/04/15 04:04:26;;;;;;;10.10;5.60;;;;;;;;;;5059626;28;20936;-67
2021/04/15 04:06:54;;;;;;;9.13;5.37;;;;;;;;;;5039915;28;20452;-67
2021/04/15 04:09:23;;;;;;;7.27;5.40;;;;;;;;;;5059118;28;20437;-67
2021/04/15 04:11:51;;;;;;;6.00;4.60;;;;;;;;;;5057719;28;20482;-67
2021/04/15 04:14:30;;;;;;;9.93;4.77;;;;;;;;;;5041112;28;20447;-67
2021/04/15 04:17:07;;;;;;;7.27;4.43;;;;;;;;;;5058597;28;20484;-67
2021/04/15 04:19:43;;;;;;;7.43;4.80;;;;;;;;;;5042082;28;20946;-67
2021/04/15 04:22:15;;;;;;;6.60;4.87;;;;;;;;;;5059891;28;20453;-67
2021/04/15 04:24:48;;;;;;;7.93;4.50;;;;;;;;;;5057993;28;20506;-67
2021/04/15 04:27:23;;;;;;;7.60;5.10;;;;;;;;;;5043604;28;20800;-67
2021/04/15 04:29:52;;;;;;;10.00;5.60;;;;;;;;;;5036296;28;20400;-67
2021/04/15 04:32:21;;;;;;;8.80;4.80;;;;;;;;;;5035980;28;20413;-67
2021/04/15 04:34:51;;;;;;;7.50;5.30;;;;;;;;;;5035728;28;20431;-67
2021/04/15 04:37:17;;;;;;;10.20;5.10;;;;;;;;;;5047113;28;20418;-67
2021/04/15 04:39:43;;;;;;;9.03;4.20;;;;;;;;;;5054904;28;20409;-66
2021/04/15 04:42:18;;;;;;;6.57;4.27;;;;;;;;;;5035473;28;21004;-67
2021/04/15 04:44:50;;;;;;;7.40;4.53;;;;;;;;;;5045885;28;20542;-66
2021/04/15 04:47:35;;;;;;;7.97;4.77;;;;;;;;;;5037632;28;20401;-67
2021/04/15 04:50:10;;;;;;;6.60;5.17;;;;;;;;;;5037351;28;20819;-66
2021/04/15 04:52:36;;;;;;;6.50;4.30;;;;;;;;;;5018637;28;20407;-66
2021/04/15 04:55:07;;;;;;;8.63;4.77;;;;;;;;;;5048332;28;20990;-66
2021/04/15 04:57:36;;;;;;;7.93;5.20;;;;;;;;;;5056980;28;20374;-67
2021/04/15 05:00:08;;;;;;;6.30;4.50;;;;;;;;;;5056072;28;20755;-66
2021/04/15 05:02:34;;;;;;;7.70;4.80;;;;;;;;;;5057326;28;20404;-67
2021/04/15 05:05:01;;;;;;;9.17;4.47;;;;;;;;;;5055772;28;20444;-67
2021/04/15 05:07:29;;;;;;;6.13;4.00;;;;;;;;;;5056774;28;20404;-67
2021/04/15 05:09:56;;;;;;;9.53;4.50;;;;;;;;;;5055469;28;20503;-67
2021/04/15 05:12:25;;;;;;;9.07;4.77;;;;;;;;;;5037565;28;20400;-67
2021/04/15 05:14:52;;;;;;;10.77;4.87;;;;;;;;;;5055629;28;20523;-66
2021/04/15 05:17:18;;;;;;;6.40;4.77;;;;;;;;;;5056932;28;20395;-67
2021/04/15 05:19:44;;;;;;;7.43;5.17;;;;;;;;;;5054566;28;20917;-66
2021/04/15 05:22:19;;;;;;;6.37;4.30;;;;;;;;;;5055289;28;20436;-66
2021/04/15 05:24:47;;;;;;;7.90;5.00;;;;;;;;;;5053596;28;20434;-67
2021/04/15 05:27:16;;;;;;;8.93;4.93;;;;;;;;;;5039190;28;20406;-67
2021/04/15 05:29:43;;;;;;;8.33;5.50;;;;;;;;;;5048721;28;20419;-67
2021/04/15 05:32:13;;;;;;;7.30;5.17;;;;;;;;;;5037291;28;20405;-67
2021/04/15 05:34:45;;;;;;;14.17;5.70;;;;;;;;;;5043764;28;20446;-66
2021/04/15 05:37:21;;;;;;;7.87;4.90;;;;;;;;;;5059283;28;20429;-67
2021/04/15 05:39:47;;;;;;;10.50;6.17;;;;;;;;;;5059789;28;20790;-67
2021/04/15 05:42:32;;;;;;;14.33;4.60;;;;;;;;;;5060792;28;20417;-67
2021/04/15 05:45:06;;;;;;;9.07;4.93;;;;;;;;;;5060625;28;20453;-66
2021/04/15 05:47:48;;;;;;;8.07;5.20;;;;;;;;;;5059725;28;20456;-66
2021/04/15 05:50:18;;;;;;;9.33;6.30;;;;;;;;;;5060563;28;20434;-66
2021/04/15 05:52:47;;;;;;;11.60;6.40;;;;;;;;;;5059683;28;20908;-67
2021/04/15 05:55:25;;;;;;;7.80;5.50;;;;;;;;;;5048243;28;20813;-67
2021/04/15 05:57:54;;;;;;;13.30;4.90;;;;;;;;;;5040957;28;20483;-67
2021/04/15 06:00:23;;;;;;;9.57;6.27;;;;;;;;;;5039663;28;20446;-67
2021/04/15 06:02:54;;;;;;;17.50;6.00;;;;;;;;;;5040844;28;20400;-67
2021/04/15 06:05:27;;;;;;;10.33;6.27;;;;;;;;;;5050693;28;21063;-66
2021/04/15 06:07:55;;;;;;;8.27;5.20;;;;;;;;;;5059690;28;20406;-67
2021/04/15 06:10:23;;;;;;;14.90;6.50;;;;;;;;;;5037571;28;20438;-67
2021/04/15 06:12:59;;;;;;;9.13;5.70;;;;;;;;;;5040960;28;20427;-67
2021/04/15 06:15:28;;;;;;;9.07;5.47;;;;;;;;;;5041552;28;20476;-67
2021/04/15 06:18:06;;;;;;;11.73;5.93;;;;;;;;;;5040563;28;20411;-67
2021/04/15 06:20:37;;;;;;;8.23;5.63;;;;;;;;;;5048046;28;20521;-67
2021/04/15 06:23:09;;;;;;;10.97;7.40;;;;;;;;;;5038713;28;20948;-67
2021/04/15 06:25:38;;;;;;;8.33;5.37;;;;;;;;;;5055881;28;21031;-67
2021/04/15 06:28:07;;;;;;;10.87;6.47;;;;;;;;;;5054096;28;20408;-67
2021/04/15 06:30:37;;;;;;;8.33;5.23;;;;;;;;;;5048575;28;20415;-67
2021/04/15 06:33:12;;;;;;;9.63;5.77;;;;;;;;;;5058058;28;20403;-67
2021/04/15 06:35:38;;;;;;;13.23;5.80;;;;;;;;;;5056976;28;20893;-67
2021/04/15 06:38:26;;;;;;;8.87;6.33;;;;;;;;;;5057525;28;20812;-67
2021/04/15 06:41:10;;;;;;;14.23;6.93;;;;;;;;;;5057392;28;20435;-67
2021/04/15 06:43:42;;;;;;;9.00;6.10;;;;;;;;;;5057938;28;20404;-67
2021/04/15 06:46:27;;;;;;;12.43;7.30;;;;;;;;;;5055664;28;20467;-67
2021/04/15 06:48:57;;;;;;;9.10;6.83;;;;;;;;;;5056788;28;20466;-67
2021/04/15 06:51:29;;;;;;;7.67;6.07;;;;;;;;;;5056635;28;20421;-67
2021/04/15 06:54:11;;;;;;;10.13;6.80;;;;;;;;;;5052819;28;20474;-67
2021/04/15 06:56:43;;;;;;;11.97;7.47;;;;;;;;;;5024179;28;20430;-67
2021/04/15 06:59:13;;;;;;;13.03;6.50;;;;;;;;;;5057981;28;20412;-67
2021/04/15 07:01:39;;;;;;;17.20;7.80;;;;;;;;;;5057926;28;20411;-67
2021/04/15 07:04:05;;;;;;;9.33;5.20;;;;;;;;;;5040349;28;20443;-67
2021/04/15 07:06:46;;;;;;;10.67;6.60;;;;;;;;;;5057817;28;20600;-67
2021/04/15 07:09:18;;;;;;;16.13;6.83;;;;;;;;;;5038680;28;20422;-67
2021/04/15 07:12:05;;;;;;;7.33;5.77;;;;;;;;;;5040733;28;20511;-67
2021/04/15 07:14:34;;;;;;;8.67;7.00;;;;;;;;;;5057556;28;20452;-67
2021/04/15 07:17:18;;;;;;;12.53;7.90;;;;;;;;;;5059211;28;20448;-67
2021/04/15 07:19:44;;;;;;;10.20;6.30;;;;;;;;;;5054886;28;20425;-67
2021/04/15 07:22:29;;;;;;;10.53;6.27;;;;;;;;;;5058435;28;20400;-67
2021/04/15 07:24:58;;;;;;;8.43;6.50;;;;;;;;;;5053141;28;20956;-65
2021/04/15 07:27:34;;;;;;;11.83;7.70;;;;;;;;;;5057877;28;20425;-67
2021/04/15 07:30:19;;;;;;;12.90;7.83;;;;;;;;;;5038233;28;20431;-66
2021/04/15 07:32:45;;;;;;;11.13;7.20;;;;;;;;;;5058590;28;20434;-66
2021/04/15 07:35:17;;;;;;;13.77;7.10;;;;;;;;;;5054188;28;20513;-67
2021/04/15 07:37:52;;;;;;;14.23;6.50;;;;;;;;;;5056863;28;20425;-65
2021/04/15 07:40:20;;;;;;;12.98;7.13;;;;;;;;;;5055888;28;20420;-65
2021/04/15 07:42:49;;;;;;;9.50;6.53;;;;;;;;;;5057644;28;20181;-63
2021/04/15 07:45:15;;;;;;;11.50;6.72;;;;;;;;;;5057026;28;20526;-65
2021/04/15 07:48:00;;;;;;;16.80;7.30;;;;;;;;;;5059659;28;20165;-65
2021/04/15 07:50:44;;;;;;;12.90;6.53;;;;;;;;;;5056672;28;20781;-65
2021/04/15 07:53:43;;;;;;;10.07;6.90;;;;;;;;;;5059734;28;20394;-64
2021/04/15 07:56:12;;;;;;;9.93;6.47;;;;;;;;;;4989048;28;20435;-64
2021/04/15 07:58:45;;;;;;;8.80;6.50;;;;;;;;;;5054449;28;20448;-66
2021/04/15 08:01:30;;;;;;;10.77;6.88;;;;;;;;;;5054385;28;20493;-64
2021/04/15 08:04:15;;;;;;;9.77;7.20;;;;;;;;;;5054923;28;20193;-64
2021/04/15 08:06:51;;;;;;;11.03;6.40;;;;;;;;;;5049410;28;20494;-65
2021/04/15 08:09:33;;;;;;;11.30;6.40;;;;;;;;;;5057826;28;20946;-64
2021/04/15 08:12:05;;;;;;;12.50;7.73;;;;;;;;;;5057804;28;20499;-64
2021/04/15 08:14:50;;;;;;;12.27;6.73;;;;;;;;;;5052845;28;21039;-63
2021/04/15 08:17:16;;;;;;;9.27;6.13;;;;;;;;;;5054031;28;20540;-63
2021/04/15 08:19:42;;;;;;;7.73;5.33;;;;;;;;;;5052507;28;20448;-63
2021/04/15 08:22:14;;;;;;;11.07;6.23;;;;;;;;;;5053660;28;20405;-64
2021/04/15 08:24:47;;;;;;;11.23;7.80;;;;;;;;;;5045680;28;20518;-63
2021/04/15 08:27:36;;;;;;;10.17;6.80;;;;;;;;;;5041291;28;20808;-63
2021/04/15 08:30:41;;;;;;;10.33;7.00;;;;;;;;;;5045313;28;20941;-63
2021/04/15 08:33:23;;;;;;;17.10;7.20;;;;;;;;;;4981924;28;20434;-63
2021/04/15 08:36:08;;;;;;;9.17;6.37;;;;;;;;;;4966182;28;20422;-62
2021/04/15 08:38:49;;;;;;;13.17;7.17;;;;;;;;;;5023924;28;20413;-63
2021/04/15 08:41:34;;;;;;;14.57;6.80;;;;;;;;;;5041667;28;20400;-63
2021/04/15 08:44:08;;;;;;;9.80;6.87;;;;;;;;;;5044046;28;20496;-63
2021/04/15 08:46:38;;;;;;;10.40;6.57;;;;;;;;;;5035590;28;20451;-65
2021/04/15 08:49:11;;;;;;;9.63;6.30;;;;;;;;;;5038247;28;20515;-63
2021/04/15 08:51:37;;;;;;;16.77;5.90;;;;;;;;;;5053052;28;20901;-62
2021/04/15 08:54:17;;;;;;;8.90;6.23;;;;;;;;;;5051156;28;20470;-63
2021/04/15 08:56:47;;;;;;;16.80;5.80;;;;;;;;;;5047366;28;20399;-63
2021/04/15 08:59:17;;;;;;;9.63;5.70;;;;;;;;;;5043214;28;20474;-63
2021/04/15 09:01:49;;;;;;;14.90;6.23;;;;;;;;;;5041121;28;20520;-63
2021/04/15 09:04:18;;;;;;;10.20;6.80;;;;;;;;;;5043331;28;20467;-63
2021/04/15 09:06:47;;;;;;;7.07;6.17;;;;;;;;;;5044143;28;20513;-63
2021/04/15 09:09:22;;;;;;;9.30;6.13;;;;;;;;;;5043303;28;20423;-63
2021/04/15 09:12:00;;;;;;;6.23;5.50;;;;;;;;;;5039923;28;20487;-63
2021/04/15 09:14:42;;;;;;;7.47;5.43;;;;;;;;;;5043734;28;20742;-64
2021/04/15 09:17:10;;;;;;;8.33;5.73;;;;;;;;;;5042924;28;20444;-66
2021/04/15 09:19:57;;;;;;;10.13;5.70;;;;;;;;;;5043663;28;20432;-64
2021/04/15 09:22:41;;;;;;;9.60;5.97;;;;;;;;;;5042730;28;20408;-63
2021/04/15 09:25:17;;;;;;;9.60;5.20;;;;;;;;;;5042642;28;20964;-64
2021/04/15 09:27:46;;;;;;;8.00;5.00;;;;;;;;;;5040730;28;20480;-64
2021/04/15 09:30:12;;;;;;;7.60;5.53;;;;;;;;;;5033356;28;20526;-64
2021/04/15 09:32:41;;;;;;;6.23;4.73;;;;;;;;;;5034096;28;20901;-63
2021/04/15 09:35:14;;;;;;;7.23;5.50;;;;;;;;;;5043135;28;20455;-63
2021/04/15 09:37:58;;;;;;;6.50;4.50;;;;;;;;;;5041199;28;20881;-64
2021/04/15 09:40:43;;;;;;;8.30;4.57;;;;;;;;;;5046153;28;20441;-64
2021/04/15 09:43:12;;;;;;;5.90;4.20;;;;;;;;;;5042991;28;21032;-64
2021/04/15 09:46:04;;;;;;;13.03;5.47;;;;;;;;;;5039963;28;20463;-64
2021/04/15 09:48:43;;;;;;;6.00;4.90;;;;;;;;;;5008364;28;20425;-64
2021/04/15 09:51:09;;;;;;;9.00;6.10;;;;;;;;;;5027596;28;20424;-64
2021/04/15 09:53:52;;;;;;;9.50;5.03;;;;;;;;;;5041232;28;20431;-64
2021/04/15 09:56:33;;;;;;;8.70;5.27;;;;;;;;;;5041573;28;20416;-64
2021/04/15 09:59:11;;;;;;;8.57;5.87;;;;;;;;;;5022784;28;20426;-64
2021/04/15 10:01:40;;;;;;;10.30;6.53;;;;;;;;;;5042252;28;20465;-64
2021/04/15 10:04:13;;;;;;;11.20;5.30;;;;;;;;;;5041659;28;20939;-65
2021/04/15 10:06:47;;;;;;;6.23;5.20;;;;;;;;;;5044014;28;20524;-64
2021/04/15 10:09:15;;;;;;;9.10;5.37;;;;;;;;;;5042086;28;20480;-64
2021/04/15 10:11:41;;;;;;;10.23;5.43;;;;;;;;;;5033644;28;20410;-64
2021/04/15 10:14:26;;;;;;;6.67;5.43;;;;;;;;;;5037755;28;20441;-64
2021/04/15 10:16:55;;;;;;;6.90;4.90;;;;;;;;;;5040676;28;20483;-64
2021/04/15 10:19:40;;;;;;;5.60;4.70;;;;;;;;;;5041810;28;20435;-62
2021/04/15 10:22:13;;;;;;;7.70;5.00;;;;;;;;;;5043134;28;20888;-62
2021/04/15 10:24:47;;;;;;;5.03;4.53;;;;;;;;;;5047395;28;20433;-63
2021/04/15 10:27:32;;;;;;;10.10;4.73;;;;;;;;;;5047611;28;20541;-63
2021/04/15 10:30:24;;;;;;;6.50;5.00;;;;;;;;;;5046267;28;20437;-64
2021/04/15 10:33:01;;;;;;;8.00;5.30;;;;;;;;;;5041739;28;20912;-64
2021/04/15 10:35:30;;;;;;;7.40;5.63;;;;;;;;;;5044526;28;20813;-63
2021/04/15 10:37:56;;;;;;;7.03;5.70;;;;;;;;;;5045232;28;20406;-63
2021/04/15 10:40:45;;;;;;;7.50;4.87;;;;;;;;;;5047171;28;20509;-64
2021/04/15 10:43:30;;;;;;;6.00;4.77;;;;;;;;;;5044690;28;20415;-62
2021/04/15 10:46:05;;;;;;;15.63;5.70;;;;;;;;;;5045155;28;20477;-64
2021/04/15 10:48:36;;;;;;;6.53;5.50;;;;;;;;;;5046230;28;20403;-64
2021/04/15 10:51:07;;;;;;;7.23;5.30;;;;;;;;;;5047614;28;20418;-62
2021/04/15 10:53:53;;;;;;;7.47;5.10;;;;;;;;;;5049200;28;20432;-64
2021/04/15 10:56:25;;;;;;;7.30;5.77;;;;;;;;;;5055249;28;20433;-64
2021/04/15 10:58:53;;;;;;;12.10;4.70;;;;;;;;;;5057886;28;20804;-64
2021/04/15 11:01:38;;;;;;;6.80;4.63;;;;;;;;;;5053597;28;20529;-64
2021/04/15 11:04:10;;;;;;;9.57;4.77;;;;;;;;;;5055038;28;20509;-64
2021/04/15 11:06:39;;;;;;;6.77;4.50;;;;;;;;;;5047963;28;20461;-64
2021/04/15 11:09:24;;;;;;;7.00;5.10;;;;;;;;;;5034603;28;20905;-64
2021/04/15 11:11:59;;;;;;;5.57;5.00;;;;;;;;;;5051884;28;20436;-64
2021/04/15 11:14:27;;;;;;;8.57;5.10;;;;;;;;;;5054692;28;20419;-64
2021/04/15 11:16:54;;;;;;;7.40;4.80;;;;;;;;;;5053576;28;20437;-64
2021/04/15 11:19:24;;;;;;;7.30;5.17;;;;;;;;;;5053069;28;20545;-65
2021/04/15 11:21:51;;;;;;;9.27;4.77;;;;;;;;;;5050973;28;20548;-64
2021/04/15 11:24:20;;;;;;;4.83;3.87;;;;;;;;;;5054565;28;21001;-64
2021/04/15 11:26:47;;;;;;;5.40;4.20;;;;;;;;;;5037575;28;20518;-64
2021/04/15 11:29:21;;;;;;;6.80;4.63;;;;;;;;;;5033797;28;20889;-64
2021/04/15 11:31:47;;;;;;;5.47;3.53;;;;;;;;;;5046834;28;20443;-66
2021/04/15 11:34:15;;;;;;;6.70;5.10;;;;;;;;;;5044570;28;20424;-64
2021/04/15 11:37:00;;;;;;;5.43;4.30;;;;;;;;;;5046485;28;20944;-64
2021/04/15 11:39:27;;;;;;;5.07;4.40;;;;;;;;;;5026203;28;20496;-64
2021/04/15 11:42:02;;;;;;;5.97;4.50;;;;;;;;;;5043511;28;20434;-64
2021/04/15 11:44:30;;;;;;;5.00;4.00;;;;;;;;;;5044259;28;20436;-64
2021/04/15 11:46:57;;;;;;;5.77;3.87;;;;;;;;;;5044170;28;20476;-64
2021/04/15 11:49:29;;;;;;;5.20;3.50;;;;;;;;;;5041979;28;20833;-64
2021/04/15 11:52:23;;;;;;;5.03;3.60;;;;;;;;;;5045838;28;20756;-64
2021/04/15 11:54:49;;;;;;;5.63;3.70;;;;;;;;;;5044056;28;20485;-64
2021/04/15 11:57:32;;;;;;;7.10;4.40;;;;;;;;;;5045004;28;20888;-64
2021/04/15 12:00:05;;;;;;;4.80;4.30;;;;;;;;;;5044508;28;20435;-64
2021/04/15 12:02:32;;;;;;;5.37;4.50;;;;;;;;;;5044684;28;20413;-64
2021/04/15 12:05:17;;;;;;;5.10;4.30;;;;;;;;;;5043937;28;20534;-65
2021/04/15 12:07:46;;;;;;;10.20;4.37;;;;;;;;;;5042127;28;20420;-64
2021/04/15 12:10:13;;;;;;;5.23;4.17;;;;;;;;;;5043680;28;20424;-65
2021/04/15 12:12:41;;;;;;;5.73;4.33;;;;;;;;;;5046008;28;20472;-64
2021/04/15 12:15:09;;;;;;;4.63;3.90;;;;;;;;;;5043796;28;20445;-64
2021/04/15 12:17:41;;;;;;;4.87;4.07;;;;;;;;;;5041989;28;20403;-64
2021/04/15 12:20:16;;;;;;;6.40;4.17;;;;;;;;;;5043947;28;20473;-64
2021/04/15 12:22:57;;;;;;;4.97;4.10;;;;;;;;;;5042119;28;20526;-64
2021/04/15 12:25:25;;;;;;;6.50;4.67;;;;;;;;;;5042133;28;20488;-64
2021/04/15 12:28:21;;;;;;;5.17;4.10;;;;;;;;;;5042474;28;20799;-64
2021/04/15 12:30:47;;;;;;;4.73;4.33;;;;;;;;;;5029824;28;20439;-65
2021/04/15 12:33:18;;;;;;;5.00;3.67;;;;;;;;;;5053470;28;20903;-64
2021/04/15 12:35:44;;;;;;;5.43;3.70;;;;;;;;;;5052006;28;20454;-63
2021/04/15 12:38:16;;;;;;;4.13;3.53;;;;;;;;;;5052971;28;20489;-63
2021/04/15 12:40:44;;;;;;;8.83;3.67;;;;;;;;;;5052138;28;20473;-63
2021/04/15 12:43:16;;;;;;;4.60;3.47;;;;;;;;;;5046964;28;20445;-63
2021/04/15 12:45:45;;;;;;;7.80;4.03;;;;;;;;;;5045103;28;20495;-63
2021/04/15 12:48:13;;;;;;;5.03;3.97;;;;;;;;;;5034381;28;20473;-64
2021/04/15 12:50:40;;;;;;;4.70;3.83;;;;;;;;;;5023319;28;20427;-63
2021/04/15 12:53:07;;;;;;;5.80;4.00;;;;;;;;;;5048081;28;20424;-64
2021/04/15 12:55:33;;;;;;;4.70;3.57;;;;;;;;;;5040024;28;20831;-64
2021/04/15 12:58:01;;;;;;;4.30;3.23;;;;;;;;;;5055413;28;20807;-64
2021/04/15 13:00:35;;;;;;;8.03;3.40;;;;;;;;;;5052953;28;20487;-64
2021/04/15 13:03:19;;;;;;;3.57;3.13;;;;;;;;;;5054760;28;20418;-63
2021/04/15 13:05:53;;;;;;;4.43;3.10;;;;;;;;;;5053933;28;20484;-63
2021/04/15 13:08:24;;;;;;;8.00;3.23;;;;;;;;;;5055152;28;20444;-63
2021/04/15 13:10:50;;;;;;;6.20;3.40;;;;;;;;;;5049184;28;20531;-63
2021/04/15 13:13:35;;;;;;;12.37;4.83;;;;;;;;;;5055185;28;20406;-63
2021/04/15 13:16:03;;;;;;;4.47;2.60;;;;;;;;;;5051121;28;20439;-62
2021/04/15 13:18:40;;;;;;;5.53;3.93;;;;;;;;;;5053074;28;20407;-63
2021/04/15 13:21:09;;;;;;;4.77;3.40;;;;;;;;;;5050656;28;20999;-63
2021/04/15 13:23:37;;;;;;;4.23;3.47;;;;;;;;;;5053290;28;20469;-64
2021/04/15 13:26:03;;;;;;;4.77;3.30;;;;;;;;;;5054243;28;20966;-63
2021/04/15 13:28:44;;;;;;;4.50;3.43;;;;;;;;;;5054907;28;20403;-64
2021/04/15 13:31:30;;;;;;;5.40;3.73;;;;;;;;;;5042676;28;20858;-64
2021/04/15 13:34:05;;;;;;;4.30;3.20;;;;;;;;;;5053668;28;20778;-64
2021/04/15 13:36:31;;;;;;;7.17;3.30;;;;;;;;;;5053290;28;20431;-63
2021/04/15 13:38:58;;;;;;;5.57;3.90;;;;;;;;;;5055237;28;20416;-64
2021/04/15 13:41:25;;;;;;;4.63;3.30;;;;;;;;;;5054831;28;20434;-64
2021/04/15 13:43:59;;;;;;;6.77;3.40;;;;;;;;;;5023471;28;20447;-64
2021/04/15 13:46:25;;;;;;;6.60;3.60;;;;;;;;;;5049458;28;20468;-64
2021/04/15 13:48:51;;;;;;;4.10;3.43;;;;;;;;;;5034769;28;20455;-63
2021/04/15 13:51:19;;;;;;;6.37;3.80;;;;;;;;;;5040315;28;20508;-63
2021/04/15 13:53:47;;;;;;;3.90;3.60;;;;;;;;;;5053018;28;20459;-63
2021/04/15 13:56:26;;;;;;;4.53;3.40;;;;;;;;;;5053447;28;20449;-63
2021/04/15 13:58:52;;;;;;;5.10;4.13;;;;;;;;;;5058775;28;20427;-65
2021/04/15 14:01:33;;;;;;;5.20;3.70;;;;;;;;;;5049528;28;20863;-63
2021/04/15 14:03:59;;;;;;;3.83;3.10;;;;;;;;;;5058815;28;20423;-63
2021/04/15 14:06:26;;;;;;;5.47;3.53;;;;;;;;;;5052497;28;20472;-63
2021/04/15 14:08:52;;;;;;;3.83;3.27;;;;;;;;;;5036356;28;20902;-63
2021/04/15 14:11:26;;;;;;;4.53;3.17;;;;;;;;;;5040672;28;20422;-63
2021/04/15 14:13:53;;;;;;;3.60;3.00;;;;;;;;;;5055219;28;20436;-63
2021/04/15 14:16:19;;;;;;;5.10;3.57;;;;;;;;;;5054438;28;20490;-63
2021/04/15 14:18:46;;;;;;;4.50;3.33;;;;;;;;;;5056491;28;20415;-63
2021/04/15 14:21:23;;;;;;;4.50;3.47;;;;;;;;;;5037673;28;20936;-64
2021/04/15 14:23:55;;;;;;;5.53;3.33;;;;;;;;;;5055624;28;20460;-62
2021/04/15 14:26:24;;;;;;;4.40;3.30;;;;;;;;;;5053848;28;20490;-65
2021/04/15 14:28:52;;;;;;;9.00;3.03;;;;;;;;;;5055777;28;20421;-65
2021/04/15 14:31:25;;;;;;;5.20;3.53;;;;;;;;;;5055288;28;20480;-64
2021/04/15 14:33:52;;;;;;;4.27;3.70;;;;;;;;;;5055911;28;20434;-64
2021/04/15 14:36:23;;;;;;;5.07;3.73;;;;;;;;;;5055458;28;20489;-65
2021/04/15 14:38:50;;;;;;;4.03;2.77;;;;;;;;;;5056194;28;20404;-63
2021/04/15 14:41:23;;;;;;;5.00;2.90;;;;;;;;;;5054732;28;20796;-63
2021/04/15 14:43:49;;;;;;;3.17;2.83;;;;;;;;;;5055148;28;20423;-64
2021/04/15 14:46:19;;;;;;;4.40;3.20;;;;;;;;;;5054388;28;20914;-65
2021/04/15 14:48:45;;;;;;;4.40;3.13;;;;;;;;;;5056222;28;20409;-66
2021/04/15 14:51:14;;;;;;;5.50;3.17;;;;;;;;;;5054734;28;20490;-65
2021/04/15 14:53:41;;;;;;;4.37;3.40;;;;;;;;;;5055375;28;20543;-65
2021/04/15 14:56:20;;;;;;;5.07;3.10;;;;;;;;;;5054225;28;20401;-65
2021/04/15 14:58:47;;;;;;;6.97;3.10;;;;;;;;;;5046032;28;20413;-64
2021/04/15 15:01:30;;;;;;;5.00;3.33;;;;;;;;;;5047113;28;20429;-64
2021/04/15 15:03:56;;;;;;;3.27;2.83;;;;;;;;;;5043694;28;20437;-64
2021/04/15 15:06:36;;;;;;;5.97;3.23;;;;;;;;;;5046704;28;20566;-65